Time;durP1;ratioP1;P1;durP2;ratioP2;P2;SDS_P1;SDS_P2;PMS_P1;PMS_P2;Temp;Humidity;BMP_temperature;BMP_pressure;BME280_temperature;BME280_humidity;BME280_pressure;Samples;Min_cycle;Max_cycle;Signal;HPM_P1;HPM_P2
2022/04/04 00:00:42;;;;;;;10.35;5.60;;;;;;;-0.85;99.49;101838.38;4914857;29;20079;-84
2022/04/04 00:03:09;;;;;;;9.03;4.90;;;;;;;-0.84;99.28;101827.66;4913725;29;20397;-84
2022/04/04 00:05:35;;;;;;;14.47;6.20;;;;;;;-0.87;99.09;101830.59;4915388;29;20299;-83
2022/04/04 00:08:01;;;;;;;12.15;5.53;;;;;;;-0.90;99.02;101838.81;4912295;29;20035;-82
2022/04/04 00:10:27;;;;;;;12.23;6.45;;;;;;;-1.05;99.36;101798.28;4921047;29;20119;-83
2022/04/04 00:12:52;;;;;;;11.93;6.60;;;;;;;-0.90;99.56;101820.38;4914440;29;20047;-82
2022/04/04 00:15:18;;;;;;;8.90;5.70;;;;;;;-0.91;99.56;101813.47;4915298;29;20036;-83
2022/04/04 00:17:45;;;;;;;9.83;5.50;;;;;;;-0.86;99.58;101816.47;4914250;29;20039;-84
2022/04/04 00:20:11;;;;;;;12.40;5.73;;;;;;;-0.86;99.59;101805.94;4896919;29;20028;-83
2022/04/04 00:22:36;;;;;;;9.60;5.60;;;;;;;-0.88;99.31;101807.09;4912618;29;20862;-83
2022/04/04 00:25:03;;;;;;;10.02;5.55;;;;;;;-0.94;99.10;101800.66;4915269;29;20122;-84
2022/04/04 00:27:28;;;;;;;11.47;5.70;;;;;;;-0.90;100.00;101801.97;4913810;29;20036;-83
2022/04/04 00:29:53;;;;;;;11.35;5.82;;;;;;;-1.00;100.00;101775.78;4919716;23;20047;-84
2022/04/04 00:32:19;;;;;;;7.97;5.03;;;;;;;-1.08;99.31;101766.03;4914597;29;20028;-83
2022/04/04 00:35:00;;;;;;;9.57;5.53;;;;;;;-1.11;99.08;101773.44;4897594;29;20191;-83
2022/04/04 00:37:26;;;;;;;9.93;6.03;;;;;;;-1.14;99.76;101764.06;4911389;29;20024;-83
2022/04/04 00:39:52;;;;;;;11.60;6.10;;;;;;;-0.93;99.65;101781.25;4929062;29;20031;-84
2022/04/04 00:42:18;;;;;;;13.27;6.33;;;;;;;-0.87;99.84;101785.06;4933741;29;20027;-83
2022/04/04 00:44:45;;;;;;;15.30;6.60;;;;;;;-0.89;99.86;101771.22;4930726;29;20299;-83
2022/04/04 00:47:11;;;;;;;13.93;6.13;;;;;;;-0.97;99.28;101762.31;4932445;29;20028;-84
2022/04/04 00:49:36;;;;;;;13.43;6.07;;;;;;;-0.97;99.24;101772.03;4932003;29;20079;-83
2022/04/04 00:52:01;;;;;;;13.67;6.53;;;;;;;-0.97;99.98;101774.66;4933650;29;20699;-84
2022/04/04 00:54:28;;;;;;;11.82;6.10;;;;;;;-0.99;99.50;101771.34;4931128;29;20035;-84
2022/04/04 00:56:54;;;;;;;11.40;5.80;;;;;;;-1.04;100.00;101763.09;4932761;29;20095;-84
2022/04/04 00:59:21;;;;;;;12.00;6.10;;;;;;;-1.02;99.95;101769.03;4931874;29;20306;-83
2022/04/04 01:01:46;;;;;;;12.80;5.85;;;;;;;-1.05;100.00;101756.19;4932334;29;20452;-83
2022/04/04 01:04:13;;;;;;;12.53;6.50;;;;;;;-1.03;100.00;101755.06;4933297;29;20114;-83
2022/04/04 01:06:39;;;;;;;10.83;6.60;;;;;;;-1.03;100.00;101754.22;4931815;29;20290;-83
2022/04/04 01:09:05;;;;;;;13.63;5.93;;;;;;;-1.00;100.00;101749.47;4930104;29;20067;-83
2022/04/04 01:11:31;;;;;;;10.75;6.28;;;;;;;-0.99;99.90;101750.31;4931612;29;20036;-84
2022/04/04 01:13:56;;;;;;;14.90;6.97;;;;;;;-1.02;100.00;101732.19;4916402;29;20032;-83
2022/04/04 01:16:21;;;;;;;12.00;6.40;;;;;;;-0.99;99.69;101730.06;4930749;29;20335;-84
2022/04/04 01:18:47;;;;;;;11.97;6.53;;;;;;;-1.02;99.49;101724.31;4931417;29;20483;-84
2022/04/04 01:21:12;;;;;;;12.73;5.97;;;;;;;-0.99;99.79;101730.06;4932289;29;20031;-83
2022/04/04 01:23:42;;;;;;;11.90;6.70;;;;;;;-0.99;99.53;101718.72;4930349;29;20655;-83
2022/04/04 01:26:13;;;;;;;12.10;6.57;;;;;;;-1.03;99.33;101712.13;4918480;29;20118;-83
2022/04/04 01:28:40;;;;;;;12.52;6.47;;;;;;;-1.04;99.54;101707.84;4931773;29;20040;-84
2022/04/04 01:31:06;;;;;;;12.07;6.38;;;;;;;-1.09;99.45;101706.50;4929463;29;20027;-84
2022/04/04 01:33:32;;;;;;;9.75;6.22;;;;;;;-1.04;99.74;101708.69;4915543;29;20094;-84
2022/04/04 01:35:58;;;;;;;13.63;6.70;;;;;;;-1.02;99.34;101698.84;4931401;29;20042;-83
2022/04/04 01:38:24;;;;;;;10.83;6.37;;;;;;;-0.96;99.06;101695.53;4932479;29;20032;-84
2022/04/04 01:40:51;;;;;;;10.15;6.07;;;;;;;-0.94;98.38;101695.41;4931944;29;20574;-84
2022/04/04 01:43:16;;;;;;;10.98;6.70;;;;;;;-0.92;98.59;101688.97;4930878;29;20368;-82
2022/04/04 01:48:23;;;;;;;12.37;6.50;;;;;;;-1.02;97.59;101654.09;5002788;23;20142;-83
2022/04/04 01:50:48;;;;;;;11.30;6.90;;;;;;;-0.88;97.32;101681.59;4895381;29;20749;-83
2022/04/04 01:53:26;;;;;;;11.95;6.43;;;;;;;-0.85;97.15;101662.84;4913562;29;20114;-83
2022/04/04 01:55:53;;;;;;;13.52;6.40;;;;;;;-0.89;97.10;101653.63;4912842;29;20032;-83
2022/04/04 01:58:18;;;;;;;10.97;5.73;;;;;;;-0.83;97.02;101647.72;4905695;29;20124;-83
2022/04/04 02:00:44;;;;;;;16.57;6.37;;;;;;;-0.81;96.82;101656.28;4894537;29;20376;-83
2022/04/04 02:03:10;;;;;;;12.93;6.90;;;;;;;-0.78;96.49;101642.81;4894691;29;20029;-83
2022/04/04 02:05:36;;;;;;;14.17;6.67;;;;;;;-0.65;96.25;101644.13;4908800;29;20134;-83
2022/04/04 02:08:02;;;;;;;10.80;6.20;;;;;;;-0.64;95.84;101636.06;4912949;29;20272;-83
2022/04/04 02:10:27;;;;;;;9.63;5.27;;;;;;;-0.68;95.44;101628.66;4912752;29;20366;-83
2022/04/04 02:12:52;;;;;;;12.33;5.63;;;;;;;-0.59;95.28;101627.69;4909049;29;20355;-84
2022/04/04 02:15:18;;;;;;;11.60;6.00;;;;;;;-0.55;94.93;101622.91;4899286;29;20028;-83
2022/04/04 02:17:44;;;;;;;11.40;5.90;;;;;;;-0.58;94.74;101620.59;4893641;29;20028;-83
2022/04/04 02:20:10;;;;;;;12.32;6.55;;;;;;;-0.52;94.87;101622.59;4895092;29;20113;-83
2022/04/04 02:22:35;;;;;;;8.85;5.47;;;;;;;-0.54;94.76;101611.38;4911765;29;20470;-83
2022/04/04 02:25:01;;;;;;;9.30;5.23;;;;;;;-0.57;95.04;101606.44;4913429;29;20029;-85
2022/04/04 02:27:26;;;;;;;10.50;5.88;;;;;;;-0.50;94.71;101607.44;4910274;29;20472;-83
2022/04/04 02:29:52;;;;;;;12.30;6.17;;;;;;;-0.44;94.65;101603.31;4912402;29;20066;-85
2022/04/04 02:32:19;;;;;;;13.88;5.65;;;;;;;-0.41;94.40;101595.91;4897429;29;20066;-84
2022/04/04 02:34:44;;;;;;;9.43;5.50;;;;;;;-0.41;94.11;101579.28;4889624;29;20083;-84
2022/04/04 02:37:10;;;;;;;7.57;5.43;;;;;;;-0.31;94.18;101583.41;4916017;29;20016;-84
2022/04/04 02:39:35;;;;;;;11.13;5.90;;;;;;;-0.36;93.64;101566.44;4916406;29;20315;-84
2022/04/04 02:42:01;;;;;;;8.93;5.28;;;;;;;-0.18;93.43;101580.22;4916953;29;20115;-84
2022/04/04 02:44:27;;;;;;;11.80;5.60;;;;;;;-0.14;93.31;101569.34;4914774;29;20066;-83
2022/04/04 02:46:53;;;;;;;11.20;6.18;;;;;;;-0.09;93.04;101561.78;4914007;29;20040;-84
2022/04/04 02:49:18;;;;;;;9.65;5.55;;;;;;;-0.06;92.81;101564.91;4898853;29;20095;-84
2022/04/04 02:51:43;;;;;;;9.23;5.20;;;;;;;0.00;92.61;101566.06;4916675;29;20043;-84
2022/04/04 02:54:09;;;;;;;13.23;6.00;;;;;;;-0.04;92.73;101546.28;4916278;29;20047;-83
2022/04/04 02:56:36;;;;;;;11.37;5.20;;;;;;;-0.05;92.84;101548.09;4899024;29;20345;-84
2022/04/04 02:59:02;;;;;;;13.45;5.60;;;;;;;0.02;92.68;101547.44;4916502;29;20036;-84
2022/04/04 03:01:28;;;;;;;10.70;5.72;;;;;;;0.08;92.47;101537.03;4914783;29;20036;-83
2022/04/04 03:03:54;;;;;;;12.85;5.47;;;;;;;0.07;92.48;101527.47;4912813;29;20400;-83
2022/04/04 03:06:19;;;;;;;8.27;5.17;;;;;;;0.13;91.87;101534.72;4914970;29;20495;-82
2022/04/04 03:08:44;;;;;;;9.77;5.63;;;;;;;0.14;91.78;101517.91;4915416;29;20028;-83
2022/04/04 03:11:10;;;;;;;8.25;5.00;;;;;;;0.19;91.37;101517.38;4916685;29;20024;-83
2022/04/04 03:13:35;;;;;;;11.10;5.83;;;;;;;0.13;91.59;101497.81;4915763;29;20441;-83
2022/04/04 03:16:00;;;;;;;10.10;4.70;;;;;;;0.17;91.68;101508.81;4914863;29;20039;-82
2022/04/04 03:18:44;;;;;;;9.47;4.90;;;;;;;0.22;91.67;101505.66;4947186;23;20396;-83
2022/04/04 03:21:47;;;;;;;7.95;4.70;;;;;;;0.23;91.59;101507.31;4918011;29;20167;-83
2022/04/04 03:25:03;;;;;;;7.75;4.20;;;;;;;0.19;91.90;101493.66;4934410;29;20488;-83
2022/04/04 03:30:23;;;;;;;10.85;4.32;;;;;;;0.20;92.25;101489.19;5152505;23;20055;-83
2022/04/04 03:32:53;;;;;;;8.32;5.10;;;;;;;0.21;92.41;101482.94;4897236;29;20059;-83
2022/04/04 03:36:02;;;;;;;9.00;4.90;;;;;;;0.26;92.24;101480.59;4898118;29;20328;-82
2022/04/04 03:38:28;;;;;;;9.23;4.67;;;;;;;0.26;92.05;101465.63;4915357;29;20319;-82
2022/04/04 03:41:12;;;;;;;9.15;4.90;;;;;;;0.11;92.33;101440.97;4915782;29;20059;-83
2022/04/04 03:43:37;;;;;;;8.50;4.80;;;;;;;0.12;92.26;101442.59;4912874;29;20480;-83
2022/04/04 03:46:03;;;;;;;9.23;4.97;;;;;;;0.28;92.65;101450.41;4914290;29;20115;-83
2022/04/04 03:48:28;;;;;;;9.13;4.90;;;;;;;0.32;92.57;101460.63;4898329;29;20375;-84
2022/04/04 03:50:54;;;;;;;11.33;4.93;;;;;;;0.30;92.87;101451.06;4912800;29;20087;-84
2022/04/04 03:53:21;;;;;;;9.13;5.30;;;;;;;0.39;92.89;101451.84;4915428;29;20028;-83
2022/04/04 03:55:47;;;;;;;12.20;6.22;;;;;;;0.44;93.14;101443.44;4915510;29;20028;-84
2022/04/04 03:58:12;;;;;;;8.48;5.10;;;;;;;0.43;92.57;101436.50;4912600;29;20123;-83
2022/04/04 04:00:39;;;;;;;11.80;4.90;;;;;;;0.50;92.44;101441.91;4896981;29;20107;-84
2022/04/04 04:03:05;;;;;;;9.80;4.57;;;;;;;0.48;92.81;101447.34;4914609;29;20215;-84
2022/04/04 04:05:30;;;;;;;10.77;5.10;;;;;;;0.46;92.65;101433.50;4911548;29;20077;-83
2022/04/04 04:07:56;;;;;;;9.43;4.30;;;;;;;0.45;92.88;101429.25;4914424;29;20068;-84
2022/04/04 04:10:22;;;;;;;8.80;5.33;;;;;;;0.44;93.00;101420.50;4915126;29;20024;-84
2022/04/04 04:12:48;;;;;;;12.13;5.25;;;;;;;0.45;93.11;101416.06;4914177;29;20070;-84
2022/04/04 04:15:16;;;;;;;12.43;5.70;;;;;;;0.40;93.49;101408.66;4914344;29;20056;-84
2022/04/04 04:17:42;;;;;;;11.17;5.37;;;;;;;0.37;93.67;101398.47;4914187;29;20028;-84
2022/04/04 04:20:20;;;;;;;14.43;5.73;;;;;;;0.42;93.55;101406.66;4914797;29;20310;-84
2022/04/04 04:22:58;;;;;;;8.65;5.00;;;;;;;0.49;93.81;101411.25;4912415;29;20028;-84
2022/04/04 04:25:27;;;;;;;8.52;5.60;;;;;;;0.49;93.77;101392.78;4913642;29;20118;-84
2022/04/04 04:27:53;;;;;;;9.80;5.65;;;;;;;0.53;94.26;101391.44;4912294;29;20032;-84
2022/04/04 04:30:19;;;;;;;13.43;5.80;;;;;;;0.53;93.98;101383.53;4912824;29;20409;-84
2022/04/04 04:32:48;;;;;;;13.13;5.70;;;;;;;0.47;93.84;101381.59;4914731;29;20488;-84
2022/04/04 04:35:15;;;;;;;17.20;6.05;;;;;;;0.52;94.50;101376.63;4915033;29;20377;-84
2022/04/04 04:40:16;;;;;;;14.50;6.15;;;;;;;0.53;94.51;101378.25;4991035;23;20129;-83
2022/04/04 04:42:42;;;;;;;12.50;6.10;;;;;;;0.51;94.52;101359.97;4917412;29;20028;-82
2022/04/04 04:45:08;;;;;;;14.95;6.25;;;;;;;0.55;94.58;101357.78;4933180;29;20042;-83
2022/04/04 04:47:34;;;;;;;15.25;6.43;;;;;;;0.57;94.54;101350.50;4932488;29;20039;-84
2022/04/04 04:50:02;;;;;;;12.15;6.07;;;;;;;0.56;94.54;101338.31;4933230;29;20024;-83
2022/04/04 04:52:28;;;;;;;17.03;6.20;;;;;;;0.58;94.75;101336.31;4933507;29;20114;-83
2022/04/04 04:54:53;;;;;;;17.50;6.63;;;;;;;0.67;94.73;101344.97;4933737;29;20390;-83
2022/04/04 04:57:20;;;;;;;14.97;6.57;;;;;;;0.70;94.81;101334.91;4931509;29;20110;-83
2022/04/04 05:43:52;;;;;;;12.65;6.60;;;;;;;1.74;90.89;101261.84;5826570;23;20389;-85
2022/04/04 05:46:20;;;;;;;11.80;6.85;;;;;;;1.61;90.15;101225.56;4926977;29;20068;-84
2022/04/04 06:44:29;;;;;;;15.77;6.80;;;;;;;3.26;82.63;101146.78;4894081;29;20043;-84
2022/04/04 06:50:06;;;;;;;13.80;6.93;;;;;;;3.77;80.70;101162.09;4936151;29;20350;-86
2022/04/04 06:52:48;;;;;;;11.98;6.22;;;;;;;3.77;81.57;101129.47;4934654;29;20083;-85
2022/04/04 06:56:11;;;;;;;11.07;6.10;;;;;;;3.85;80.18;101152.28;4933981;29;20024;-84
2022/04/04 07:02:39;;;;;;;11.30;6.72;;;;;;;4.02;79.67;101136.78;4831413;29;20046;-83
2022/04/04 07:05:31;;;;;;;14.50;6.88;;;;;;;3.93;78.87;101099.06;4791212;29;20470;-83
2022/04/04 07:08:06;;;;;;;13.45;6.97;;;;;;;4.19;78.55;101124.72;4848096;29;20048;-84
2022/04/04 07:10:32;;;;;;;11.80;6.25;;;;;;;4.21;78.69;101103.28;4915429;29;20032;-83
2022/04/04 07:13:49;;;;;;;;;;;;;;;;;;;;;
2022/04/04 07:16:51;;;;;;;10.60;6.03;;;;;;;4.67;75.99;101104.97;4910028;29;20048;-84
2022/04/04 07:19:45;;;;;;;19.10;6.22;;;;;;;4.53;75.49;101071.56;4817859;29;20046;-84
2022/04/04 07:23:16;;;;;;;;;;;;;;;;;;;;;
2022/04/04 07:36:07;;;;;;;18.65;6.10;;;;;;;5.04;73.52;101066.34;4798353;29;20100;-83
2022/04/04 07:42:08;;;;;;;10.53;5.07;;;;;;;5.16;73.03;101048.69;4898689;29;20126;-82
2022/04/04 07:44:34;;;;;;;12.73;5.60;;;;;;;5.16;72.24;101032.75;4912831;29;20311;-83
2022/04/04 10:02:00;;;;;;;10.77;6.85;;;;;;;5.59;81.01;100856.53;5810788;23;20807;-86
2022/04/04 10:05:22;;;;;;;13.30;6.93;;;;;;;5.55;81.03;100870.50;4862020;29;20048;-85
2022/04/04 10:08:15;;;;;;;13.30;7.88;;;;;;;5.44;82.81;100848.13;5492621;23;20040;-84
2022/04/04 10:14:08;;;;;;;16.63;7.03;;;;;;;5.46;85.06;100852.19;4872751;29;20080;-85
2022/04/04 10:59:03;;;;;;;17.65;8.95;;;;;;;5.01;97.62;100794.03;4950434;23;20119;-84
2022/04/04 11:01:34;;;;;;;17.10;9.48;;;;;;;5.15;98.08;100803.47;4912777;29;20048;-84
2022/04/04 11:17:36;;;;;;;14.57;9.47;;;;;;;5.26;99.25;100790.47;5309704;23;20339;-84
2022/04/04 18:50:48;;;;;;;10.50;8.15;;;;;;;5.73;100.00;100454.88;5199382;23;20052;-87
2022/04/04 18:53:45;;;;;;;11.43;8.40;;;;;;;5.71;100.00;100446.31;4931055;29;20032;-86
2022/04/04 18:56:17;;;;;;;11.25;8.48;;;;;;;5.80;100.00;100468.84;4909179;29;20028;-89
2022/04/04 18:58:43;;;;;;;12.30;8.15;;;;;;;5.77;100.00;100453.38;4911300;29;20038;-87
2022/04/04 19:01:09;;;;;;;12.23;8.70;;;;;;;5.92;100.00;100468.81;4893761;29;20036;-87
2022/04/04 19:03:35;;;;;;;12.03;8.97;;;;;;;5.94;100.00;100463.25;4893581;29;20400;-86
2022/04/04 19:06:16;;;;;;;13.48;9.68;;;;;;;5.82;100.00;100445.50;4908317;29;20140;-86
2022/04/04 19:08:46;;;;;;;13.68;11.00;;;;;;;5.85;100.00;100447.66;4882853;29;20179;-86
2022/04/04 19:14:37;;;;;;;12.98;9.95;;;;;;;5.96;100.00;100464.63;4917819;28;20036;-88
2022/04/04 19:17:03;;;;;;;11.45;8.90;;;;;;;5.83;100.00;100441.78;4916438;29;20036;-88
2022/04/04 19:19:28;;;;;;;12.43;8.93;;;;;;;5.97;100.00;100455.63;4914833;29;20455;-89
2022/04/04 19:21:54;;;;;;;12.53;8.77;;;;;;;6.02;100.00;100460.28;4914811;29;20036;-88
2022/04/04 19:24:31;;;;;;;13.73;10.07;;;;;;;5.99;100.00;100463.38;4970381;23;20046;-89
2022/04/04 19:27:35;;;;;;;15.18;10.20;;;;;;;6.06;100.00;100464.06;4935888;29;20038;-89
2022/04/04 19:30:11;;;;;;;13.88;10.02;;;;;;;5.96;100.00;100445.22;4945315;29;20122;-88
2022/04/04 19:32:37;;;;;;;15.35;12.10;;;;;;;6.11;100.00;100466.03;4943425;29;20032;-88
2022/04/04 19:35:03;;;;;;;16.33;10.77;;;;;;;6.08;100.00;100458.53;4939234;29;20028;-88
2022/04/04 19:37:30;;;;;;;18.97;11.33;;;;;;;6.11;100.00;100464.16;4936309;29;20058;-88
2022/04/04 19:39:56;;;;;;;17.53;11.47;;;;;;;6.13;100.00;100464.75;4935194;29;20318;-89
2022/04/04 19:42:21;;;;;;;19.38;12.15;;;;;;;6.12;100.00;100459.63;4937243;29;20024;-87
2022/04/04 19:44:46;;;;;;;19.70;12.07;;;;;;;6.16;100.00;100466.94;4936695;29;20051;-88
2022/04/04 19:47:11;;;;;;;19.17;11.90;;;;;;;6.19;100.00;100473.63;4933795;29;20290;-88
2022/04/04 19:49:37;;;;;;;16.30;11.03;;;;;;;6.17;100.00;100460.56;4916874;29;20511;-87
2022/04/04 19:52:04;;;;;;;17.10;11.43;;;;;;;6.18;100.00;100459.53;4933821;29;20028;-87
2022/04/04 19:54:30;;;;;;;18.15;13.02;;;;;;;6.17;100.00;100457.91;4916313;29;20029;-88
2022/04/04 19:56:58;;;;;;;18.70;12.57;;;;;;;6.20;100.00;100461.94;4920898;29;20051;-88
2022/04/04 19:59:24;;;;;;;20.33;13.45;;;;;;;6.21;100.00;100463.56;4898201;29;20476;-89
2022/04/04 20:01:49;;;;;;;16.70;12.15;;;;;;;6.20;100.00;100456.63;4915868;29;20488;-88
2022/04/04 20:04:16;;;;;;;17.38;12.13;;;;;;;6.26;100.00;100455.66;4915521;29;20052;-88
2022/04/04 20:06:41;;;;;;;20.40;13.70;;;;;;;6.24;100.00;100443.63;4902676;29;20016;-88
2022/04/04 20:09:07;;;;;;;21.70;13.70;;;;;;;6.23;100.00;100440.19;4912169;29;20559;-89
2022/04/04 20:11:33;;;;;;;19.83;13.93;;;;;;;6.32;100.00;100448.59;4932081;29;20056;-88
2022/04/04 20:14:01;;;;;;;22.42;15.02;;;;;;;6.29;100.00;100438.41;4925521;29;20032;-89
2022/04/04 20:16:27;;;;;;;20.13;13.60;;;;;;;6.33;100.00;100440.34;4930442;29;20032;-88
2022/04/04 20:18:52;;;;;;;22.47;13.17;;;;;;;6.35;100.00;100453.44;4933730;29;20448;-88
2022/04/04 20:21:26;;;;;;;20.23;13.40;;;;;;;6.33;100.00;100444.88;4933080;29;20236;-89
2022/04/04 20:26:25;;;;;;;18.92;12.68;;;;;;;6.36;100.00;100441.75;4892725;29;20037;-89
2022/04/04 20:28:53;;;;;;;23.00;16.23;;;;;;;6.35;100.00;100437.47;4898380;29;20032;-87
2022/04/04 20:31:19;;;;;;;19.70;13.90;;;;;;;6.26;100.00;100418.41;4894218;29;20029;-88
2022/04/04 20:33:46;;;;;;;19.60;13.53;;;;;;;6.34;100.00;100431.31;4895640;29;20412;-87
2022/04/04 20:36:38;;;;;;;23.30;14.38;;;;;;;6.43;100.00;100444.25;4894741;29;20032;-87
2022/04/04 20:42:04;;;;;;;21.73;13.55;;;;;;;6.27;100.00;100406.72;4893020;29;20123;-87
2022/04/04 20:47:05;;;;;;;21.67;14.05;;;;;;;6.43;100.00;100429.09;5337117;23;20461;-85
2022/04/04 20:49:30;;;;;;;23.33;14.43;;;;;;;6.48;100.00;100439.81;4898264;29;20028;-87
2022/04/04 20:52:08;;;;;;;22.90;15.55;;;;;;;6.28;100.00;100402.19;4909905;23;20045;-87
2022/04/04 20:54:40;;;;;;;20.03;12.73;;;;;;;6.43;100.00;100422.97;4950135;23;20055;-87
2022/04/04 20:57:31;;;;;;;21.13;14.75;;;;;;;6.50;100.00;100424.44;4931705;29;20110;-87
2022/04/04 21:05:49;;;;;;;22.45;14.10;;;;;;;6.49;100.00;100409.50;4891393;29;20052;-87
2022/04/04 21:12:04;;;;;;;23.05;15.00;;;;;;;6.56;100.00;100422.66;4891910;29;20108;-87
2022/04/04 21:14:33;;;;;;;22.48;13.25;;;;;;;6.59;100.00;100419.50;4876316;29;20159;-87
2022/04/04 21:20:20;;;;;;;17.63;11.57;;;;;;;6.47;100.00;100394.81;4896672;29;20084;-88
2022/04/04 21:22:46;;;;;;;19.73;11.40;;;;;;;6.44;100.00;100380.13;4892293;29;20708;-87
2022/04/04 21:29:07;;;;;;;19.85;11.18;;;;;;;6.70;100.00;100411.69;4951484;28;20042;-88
2022/04/04 21:32:42;;;;;;;19.55;12.52;;;;;;;6.70;100.00;100409.00;4951075;28;20602;-88
2022/04/04 21:35:59;;;;;;;16.20;10.60;;;;;;;6.44;100.00;100372.13;4860890;29;20201;-88
2022/04/04 21:38:28;;;;;;;17.20;11.30;;;;;;;6.72;100.00;100399.75;4894329;29;20048;-87
2022/04/04 21:40:53;;;;;;;20.13;11.38;;;;;;;6.62;100.00;100383.59;4930941;29;20034;-87
2022/04/04 21:43:18;;;;;;;19.40;11.73;;;;;;;6.77;100.00;100407.00;4933252;29;20412;-87
2022/04/04 21:45:45;;;;;;;19.57;11.87;;;;;;;6.63;100.00;100385.22;4932767;29;20028;-87
2022/04/04 21:51:32;;;;;;;23.42;13.40;;;;;;;6.82;100.00;100397.22;4932091;29;20055;-87
2022/04/04 21:54:07;;;;;;;25.87;14.03;;;;;;;6.72;100.00;100378.44;4942703;23;20031;-88
2022/04/04 22:03:16;;;;;;;32.30;16.48;;;;;;;6.81;100.00;100370.88;4945754;29;20042;-88
2022/04/04 22:06:15;;;;;;;37.53;16.93;;;;;;;7.08;100.00;100410.94;4932845;29;20454;-88
2022/04/04 22:09:31;;;;;;;39.58;17.95;;;;;;;7.16;100.00;100415.06;4955562;23;20047;-89
2022/04/04 22:12:21;;;;;;;50.00;21.55;;;;;;;6.92;100.00;100363.84;4916207;29;20122;-89
2022/04/04 22:14:46;;;;;;;65.38;24.75;;;;;;;7.18;100.00;100370.31;4910378;29;20048;-88
2022/04/04 22:17:43;;;;;;;66.67;25.47;;;;;;;7.36;100.00;100395.06;4932723;29;20028;-88
2022/04/04 22:20:11;;;;;;;72.25;26.48;;;;;;;7.20;100.00;100367.41;4835961;29;20046;-89
2022/04/04 22:22:37;;;;;;;74.85;28.13;;;;;;;7.38;100.00;100388.41;4915856;29;20036;-88
2022/04/04 22:25:03;;;;;;;84.13;30.58;;;;;;;7.42;100.00;100391.41;4919229;29;20127;-88
2022/04/04 22:27:29;;;;;;;90.18;31.20;;;;;;;7.50;100.00;100392.81;4931719;29;20087;-89
2022/04/04 22:29:54;;;;;;;89.80;32.07;;;;;;;7.56;100.00;100399.84;4914335;29;20027;-88
2022/04/04 22:32:19;;;;;;;100.23;33.53;;;;;;;7.67;100.00;100414.91;4931520;29;20039;-88
2022/04/04 22:34:45;;;;;;;102.57;33.63;;;;;;;7.71;100.00;100405.34;4914112;29;20471;-88
2022/04/04 22:37:10;;;;;;;115.03;35.05;;;;;;;7.73;100.00;100387.25;4931915;29;20020;-88
2022/04/04 22:39:35;;;;;;;118.37;33.50;;;;;;;7.88;100.00;100399.97;4931878;29;20038;-88
2022/04/04 22:42:00;;;;;;;119.77;34.73;;;;;;;7.93;100.00;100404.53;4931142;29;20479;-88
2022/04/04 22:44:26;;;;;;;128.27;35.07;;;;;;;8.05;100.00;100407.06;4931872;29;20042;-88
2022/04/04 22:46:53;;;;;;;126.50;37.70;;;;;;;7.87;100.00;100382.34;4931572;29;20039;-89
2022/04/04 22:52:03;;;;;;;115.53;32.80;;;;;;;7.95;100.00;100389.09;4956536;23;20084;-89
2022/04/04 22:54:32;;;;;;;116.63;34.10;;;;;;;7.93;100.00;100382.41;4908018;23;20056;-88
2022/04/04 22:56:57;;;;;;;110.47;32.72;;;;;;;8.01;100.00;100381.94;4895872;29;20025;-88
2022/04/04 22:59:38;;;;;;;;;;;;;;;;;;;;;
2022/04/04 23:02:20;;;;;;;115.78;34.90;;;;;;;8.06;100.00;100389.19;4863013;29;20056;-89
2022/04/04 23:04:46;;;;;;;99.47;30.55;;;;;;;8.18;100.00;100393.31;4896960;29;20195;-89
2022/04/04 23:07:13;;;;;;;104.07;32.43;;;;;;;8.29;100.00;100410.25;4897522;29;20024;-90
2022/04/04 23:09:43;;;;;;;93.38;29.45;;;;;;;8.39;100.00;100430.09;4897524;29;20024;-89
2022/04/04 23:12:09;;;;;;;97.22;30.52;;;;;;;8.34;100.00;100414.81;4894086;29;20159;-89
2022/04/04 23:14:34;;;;;;;94.53;30.20;;;;;;;8.30;100.00;100409.19;4898101;29;20045;-89
2022/04/04 23:16:59;;;;;;;97.87;32.03;;;;;;;8.39;100.00;100417.53;4897471;29;20300;-89
2022/04/04 23:19:25;;;;;;;87.37;27.40;;;;;;;8.41;100.00;100420.75;4898766;29;20044;-89
2022/04/04 23:21:50;;;;;;;82.17;27.67;;;;;;;8.41;100.00;100425.28;4898426;29;20068;-89
2022/04/04 23:24:15;;;;;;;85.90;28.40;;;;;;;8.36;100.00;100409.25;4898298;29;20036;-89
2022/04/04 23:26:56;;;;;;;82.07;27.27;;;;;;;8.27;100.00;100396.34;4898125;29;20417;-88
2022/04/04 23:29:37;;;;;;;74.53;26.35;;;;;;;8.18;100.00;100387.97;4897048;29;20048;-88
2022/04/04 23:32:05;;;;;;;82.88;29.13;;;;;;;8.35;100.00;100400.41;4896188;29;20032;-88
2022/04/04 23:34:43;;;;;;;75.90;26.35;;;;;;;8.36;100.00;100411.91;4896438;29;20043;-88
2022/04/04 23:37:08;;;;;;;70.63;24.75;;;;;;;8.42;100.00;100417.03;4897231;29;20083;-89
2022/04/04 23:39:33;;;;;;;72.03;24.57;;;;;;;8.38;100.00;100405.25;4897543;29;20115;-88
2022/04/04 23:41:59;;;;;;;67.03;24.37;;;;;;;8.30;100.00;100398.50;4895160;29;20126;-88
2022/04/04 23:44:24;;;;;;;64.03;23.20;;;;;;;8.32;100.00;100406.25;4895834;29;20037;-89
2022/04/04 23:46:50;;;;;;;65.17;24.17;;;;;;;8.44;100.00;100419.44;4895594;29;20066;-88
2022/04/04 23:49:15;;;;;;;62.37;20.80;;;;;;;8.39;100.00;100414.06;4896903;29;20029;-89
2022/04/04 23:51:40;;;;;;;52.97;21.13;;;;;;;8.48;100.00;100433.94;4895170;29;20036;-88
2022/04/04 23:54:05;;;;;;;61.67;20.80;;;;;;;8.47;100.00;100432.28;4895429;29;20071;-89
2022/04/04 23:56:31;;;;;;;55.77;19.00;;;;;;;8.38;100.00;100415.91;4895622;29;20044;-89
2022/04/04 23:58:56;;;;;;;55.87;19.87;;;;;;;8.45;100.00;100421.88;4880703;29;20320;-89
